Friday, July 20, 2018, 3:47 AM CDT
Back to Local

KOJC, Olathe Johnson Co Executive

Location: Olathe, KS, United States Lat: 38.833
Local Time: 3:47 AM CDT ( 8:47 GMT) Lon: -94.733
Time Zone: US/Central Elev: 1095 ft

Show me the last for .
Show Decoded

2018-07-20 02:53 METAR KOJC 200753Z AUTO 24005KT 10SM FEW065 BKN080 BKN100 23/19 A2986 RMK AO2
                 SLP098 T02280189 $ =
2018-07-20 01:53 METAR KOJC 200653Z AUTO 24004KT 10SM CLR 22/19 A2986 RMK AO2 LTG DSNT SE SLP098
                 T02170194 $ =
2018-07-20 00:53 METAR KOJC 200553Z AUTO 00000KT 10SM CLR 21/19 A2986 RMK AO2 SLP098 T02110194
                 10239 20211 403500211 51002 $ =
2018-07-19 23:53 METAR KOJC 200453Z AUTO 25003KT 10SM CLR 22/19 A2986 RMK AO2 SLP097 T02170189 $
                 =
2018-07-19 22:53 METAR KOJC 200353Z AUTO 23005KT 10SM CLR 22/19 A2986 RMK AO2 SLP099 T02170194 =
2018-07-19 21:53 METAR KOJC 200253Z AUTO 23004KT 10SM CLR 22/19 A2986 RMK AO2 SLP098 T02170194
                 53004 =
2018-07-19 20:53 METAR KOJC 200153Z 20006KT 10SM CLR 22/21 A2984 RMK AO2 SLP093 T02220206 =
2018-07-19 19:53 METAR KOJC 200053Z 18007KT 10SM CLR 24/22 A2983 RMK AO2 SLP091 T02390217 =
2018-07-19 18:53 METAR KOJC 192353Z 19008KT 10SM CLR 23/22 A2984 RMK AO2 SLP096 60018 T02330222
                 10350 20233 50004 =
2018-07-19 17:53 METAR KOJC 192253Z 16006KT 10SM CLR 23/22 A2985 RMK AO2 SLP096 T02330222 =
2018-07-19 16:53 METAR KOJC 192153Z 19004KT 10SM FEW019 SCT049 BKN060 24/21 A2986 RMK AO2 PK WND
                 30026/2127 LTG DSNT E-SW RAB27E44 TSE49 SLP099 P0018 T02440211 =
2018-07-19 16:38 METAR KOJC 192138Z 25014G23KT 7SM -TSRA FEW023 BKN049 OVC070 24/21 A2987 RMK AO2
                 PK WND 30026/2127 LTG DSNT SE-SW RAB27 PRESRR TS OHD MOV E P0017 T02440211 =
2018-07-19 16:35 METAR KOJC 192135Z 25014G23KT 1SM TSRA SCT023 BKN049 BKN070 25/21 A2987 RMK AO2
                 PK WND 30026/2127 LTG DSNT SE-SW RAB27 PRESRR TS OHD MOV E P0017 T02500206 =
2018-07-19 16:28 METAR KOJC 192128Z 25014G23KT 1 3/4SM +TSRA FEW021 SCT049 BKN065 27/21 A2984 RMK
                 AO2 PK WND 30026/2127 LTG DSNT SE-W RAB27 PRESRR TS OHD MOV E P0010 T02670211 =
2018-07-19 16:26 METAR KOJC 192126Z 25014G23KT 4SM TS HZ FEW025 SCT065 BKN080 27/21 A2984 RMK AO2
                 LTG DSNT SE-W PRESRR TS OHD MOV E T02670206 =
2018-07-19 15:53 METAR KOJC 192053Z 11010G16KT 10SM FEW070 28/22 A2983 RMK AO2 LTG DSNT ALQDS
                 TSB15E36 SLP089 T02830222 55005 =
2018-07-19 15:36 METAR KOJC 192036Z COR 100/11KT 10SM FEW070 34/22 A2983 RMK AO2 LTG DSNT E-SW
                 TSB15E36 T03390217 =
2018-07-19 15:17 METAR KOJC 192017Z 26010G15KT 10SM TS FEW070 34/21 A2980 RMK AO2 LTG DSNT E AND
                 SE TSB15 TS NE MOV NE T03440211 =
2018-07-19 14:53 METAR KOJC 191953Z VRB06KT 10SM FEW065 34/23 A2981 RMK AO2 LTG DSNT E AND SE
                 SLP080 T03440233 =
2018-07-19 13:53 METAR KOJC 191853Z 21009KT 10SM FEW065 FEW080 34/23 A2982 RMK AO2 LTG DSNT NE
                 AND E SLP083 T03390233 =
2018-07-19 12:53 METAR KOJC 191753Z 18008KT 10SM FEW049 BKN060 33/24 A2985 RMK AO2 SLP092
                 T03280239 10328 20222 56005 =
2018-07-19 11:53 METAR KOJC 191653Z 23006KT 10SM FEW040 32/23 A2985 RMK AO2 SLP094 T03220233 =
2018-07-19 10:53 METAR KOJC 191553Z 24008KT 10SM CLR 31/24 A2985 RMK AO2 SLP093 T03060239 =
2018-07-19 09:53 METAR KOJC 191453Z 22008KT 10SM CLR 28/24 A2986 RMK AO2 SLP097 T02830244 58008 =
2018-07-19 08:53 METAR KOJC 191353Z 22007KT 10SM CLR 26/24 A2987 RMK AO2 SLP101 T02610239 =
2018-07-19 07:53 METAR KOJC 191253Z 20007KT 9SM BKN039 BKN080 24/23 A2988 RMK AO2 SLP106
                 T02390233 =
2018-07-19 06:53 METAR KOJC 191153Z COR 18004KT 7SM FEW070 22/22 A2989 RMK AO2 SLP108 T02220222
                 10233 20211 55003 =
2018-07-19 06:10 METAR KOJC 191110Z AUTO 16006KT 6SM BR FEW002 22/22 A2988 RMK AO2 T02170217 =
2018-07-19 05:53 METAR KOJC 191053Z AUTO 16006KT 7SM CLR 22/22 A2988 RMK AO2 SLP106 T02170217 =
2018-07-19 04:53 METAR KOJC 190953Z AUTO 15004KT 10SM CLR 22/22 A2989 RMK AO2 SLP109 T02220222 =
2018-07-19 03:53 METAR KOJC 190853Z AUTO 17004KT 10SM CLR 22/22 A2989 RMK AO2 SLP111 T02170217
                 55007 =

Support USWX by starting your Amazon purchase here.